KATW/ATW METAR and TAF weather

Enter ICAO airport designator
Station Type Date Time Source
KATW METAR 2022/05/24 11:45 UTC NOAA

KATW 241145Z 04003KT 10SM BKN120 07/00 A3029


Station Type Date Time Source
KATW Decoded METAR 2022/05/24 11:45 UTC NOAA

Appleton / Outagamie, WI, United States (KATW) 44-15N 088-31W
May 24, 2022 - 07:45 AM EDT / 2022.05.24 1145 UTC
Wind: from the NE (040 degrees) at 3 MPH (3 KT):0
Visibility: 10 mile(s):0
Sky conditions: mostly cloudy
Temperature: 44 F (7 C)
Dew Point: 32 F (0 C)
Relative Humidity: 60%
Pressure (altimeter): 30.29 in. Hg (1025 hPa)
ob: KATW 241145Z 04003KT 10SM BKN120 07/00 A3029
cycle: 12

Station Type Date Time Source
KATW TAF 2022/05/24 12:48 UTC NOAA

TAF KATW 241145Z 2412/2512 VRB03KT P6SM BKN150
FM241500 09005KT P6SM BKN150
FM250600 07007KT P6SM BKN100

Example: see airport list